Terminal Aerodrome Forecast
Issued by NWS Tuscon, AZ

Home | Current Version | Previous Version | Text Only | Print | Product List | Glossary On
Versions: 1 2 3 4 5 6 7 8 9 10 11 12 13 14 15 16 17 18 19
000
FTUS45 KTWC 312300
TAFTUS
TAF
KTUS 312320Z 0100/0124 05007KT P6SM BKN120 BKN200
     FM010700 15006KT P6SM FEW080 SCT120 BKN200
     FM011900 28007KT P6SM SCT100=

USA.gov is the U.S. government's official web portal to all federal, state and local government web resources and services.